sensor_id;sensor_type;location;lat;lon;timestamp;temperature;humidity
1361;DHT22;674;45.552;-122.600;2022-09-17T00:01:39;22.00;1.00
1361;DHT22;674;45.552;-122.600;2022-09-17T00:04:09;22.10;1.00
1361;DHT22;674;45.552;-122.600;2022-09-17T00:06:38;22.00;1.00
1361;DHT22;674;45.552;-122.600;2022-09-17T00:09:07;22.00;1.00
1361;DHT22;674;45.552;-122.600;2022-09-17T00:11:38;22.20;1.00
1361;DHT22;674;45.552;-122.600;2022-09-17T00:14:11;22.30;1.00
1361;DHT22;674;45.552;-122.600;2022-09-17T00:16:45;22.00;1.00
1361;DHT22;674;45.552;-122.600;2022-09-17T00:19:18;22.00;1.00
1361;DHT22;674;45.552;-122.600;2022-09-17T00:21:47;21.70;1.00
1361;DHT22;674;45.552;-122.600;2022-09-17T00:24:17;21.70;1.00
1361;DHT22;674;45.552;-122.600;2022-09-17T00:26:46;21.10;1.00
1361;DHT22;674;45.552;-122.600;2022-09-17T00:29:15;20.70;1.00
1361;DHT22;674;45.552;-122.600;2022-09-17T00:31:44;20.90;1.00
1361;DHT22;674;45.552;-122.600;2022-09-17T00:34:12;20.30;1.00
1361;DHT22;674;45.552;-122.600;2022-09-17T00:36:41;20.30;1.00
1361;DHT22;674;45.552;-122.600;2022-09-17T00:39:10;20.40;1.00
1361;DHT22;674;45.552;-122.600;2022-09-17T00:41:39;20.20;1.00
1361;DHT22;674;45.552;-122.600;2022-09-17T00:44:40;20.00;1.00
1361;DHT22;674;45.552;-122.600;2022-09-17T00:47:30;19.70;1.00
1361;DHT22;674;45.552;-122.600;2022-09-17T00:50:24;19.60;1.00
1361;DHT22;674;45.552;-122.600;2022-09-17T00:53:13;19.50;1.00
1361;DHT22;674;45.552;-122.600;2022-09-17T00:55:47;19.30;1.00
1361;DHT22;674;45.552;-122.600;2022-09-17T00:58:18;19.10;1.00
1361;DHT22;674;45.552;-122.600;2022-09-17T01:00:48;19.10;1.00
1361;DHT22;674;45.552;-122.600;2022-09-17T01:03:17;18.70;1.00
1361;DHT22;674;45.552;-122.600;2022-09-17T01:36:33;17.90;1.00
1361;DHT22;674;45.552;-122.600;2022-09-17T01:41:50;18.00;1.00
1361;DHT22;674;45.552;-122.600;2022-09-17T01:44:37;18.00;1.00
1361;DHT22;674;45.552;-122.600;2022-09-17T01:47:37;17.80;1.00
1361;DHT22;674;45.552;-122.600;2022-09-17T01:50:15;17.80;1.00
1361;DHT22;674;45.552;-122.600;2022-09-17T01:52:46;17.90;1.00
1361;DHT22;674;45.552;-122.600;2022-09-17T01:55:17;17.90;1.00
1361;DHT22;674;45.552;-122.600;2022-09-17T01:57:53;17.80;1.00
1361;DHT22;674;45.552;-122.600;2022-09-17T02:00:23;17.80;1.00
1361;DHT22;674;45.552;-122.600;2022-09-17T02:03:24;17.90;1.00
1361;DHT22;674;45.552;-122.600;2022-09-17T02:05:59;18.00;1.00
1361;DHT22;674;45.552;-122.600;2022-09-17T02:08:46;17.90;1.00
1361;DHT22;674;45.552;-122.600;2022-09-17T02:11:16;17.90;1.00
1361;DHT22;674;45.552;-122.600;2022-09-17T02:14:06;17.90;1.00
1361;DHT22;674;45.552;-122.600;2022-09-17T02:16:44;17.80;1.00
1361;DHT22;674;45.552;-122.600;2022-09-17T02:19:24;17.80;1.00
1361;DHT22;674;45.552;-122.600;2022-09-17T02:22:13;17.90;1.00
1361;DHT22;674;45.552;-122.600;2022-09-17T02:25:03;18.00;1.00
1361;DHT22;674;45.552;-122.600;2022-09-17T02:30:09;18.10;1.00
1361;DHT22;674;45.552;-122.600;2022-09-17T02:32:37;18.10;1.00
1361;DHT22;674;45.552;-122.600;2022-09-17T02:35:06;18.10;1.00
1361;DHT22;674;45.552;-122.600;2022-09-17T02:37:35;18.00;1.00
1361;DHT22;674;45.552;-122.600;2022-09-17T02:40:04;18.00;1.00
1361;DHT22;674;45.552;-122.600;2022-09-17T02:59:44;18.30;1.00
1361;DHT22;674;45.552;-122.600;2022-09-17T03:04:44;18.00;1.00
1361;DHT22;674;45.552;-122.600;2022-09-17T03:07:17;17.90;1.00
1361;DHT22;674;45.552;-122.600;2022-09-17T03:09:46;17.80;1.00
1361;DHT22;674;45.552;-122.600;2022-09-17T03:12:14;17.40;1.00
1361;DHT22;674;45.552;-122.600;2022-09-17T03:14:43;17.40;1.00
1361;DHT22;674;45.552;-122.600;2022-09-17T03:17:12;17.40;1.00
1361;DHT22;674;45.552;-122.600;2022-09-17T03:19:41;17.40;1.00
1361;DHT22;674;45.552;-122.600;2022-09-17T03:22:10;17.40;1.00
1361;DHT22;674;45.552;-122.600;2022-09-17T03:24:39;17.40;1.00
1361;DHT22;674;45.552;-122.600;2022-09-17T03:27:07;17.50;1.00
1361;DHT22;674;45.552;-122.600;2022-09-17T03:29:36;17.50;1.00
1361;DHT22;674;45.552;-122.600;2022-09-17T03:32:05;17.60;1.00
1361;DHT22;674;45.552;-122.600;2022-09-17T03:34:33;17.50;1.00
1361;DHT22;674;45.552;-122.600;2022-09-17T03:37:02;17.50;1.00
1361;DHT22;674;45.552;-122.600;2022-09-17T03:39:30;17.50;1.00
1361;DHT22;674;45.552;-122.600;2022-09-17T03:41:59;17.50;1.00
1361;DHT22;674;45.552;-122.600;2022-09-17T03:44:27;17.40;1.00
1361;DHT22;674;45.552;-122.600;2022-09-17T03:46:56;17.40;1.00
1361;DHT22;674;45.552;-122.600;2022-09-17T03:49:24;17.30;1.00
1361;DHT22;674;45.552;-122.600;2022-09-17T03:51:53;17.30;1.00
1361;DHT22;674;45.552;-122.600;2022-09-17T03:54:21;17.30;1.00
1361;DHT22;674;45.552;-122.600;2022-09-17T03:56:50;17.20;1.00
1361;DHT22;674;45.552;-122.600;2022-09-17T03:59:18;17.30;1.00
1361;DHT22;674;45.552;-122.600;2022-09-17T04:01:46;17.20;1.00
1361;DHT22;674;45.552;-122.600;2022-09-17T04:04:15;17.20;1.00
1361;DHT22;674;45.552;-122.600;2022-09-17T04:06:43;17.10;1.00
1361;DHT22;674;45.552;-122.600;2022-09-17T04:09:12;17.20;1.00
1361;DHT22;674;45.552;-122.600;2022-09-17T04:11:40;17.10;1.00
1361;DHT22;674;45.552;-122.600;2022-09-17T04:14:09;17.10;1.00
1361;DHT22;674;45.552;-122.600;2022-09-17T04:16:37;17.00;1.00
1361;DHT22;674;45.552;-122.600;2022-09-17T04:19:05;17.00;1.00
1361;DHT22;674;45.552;-122.600;2022-09-17T04:21:34;16.80;1.00
1361;DHT22;674;45.552;-122.600;2022-09-17T04:24:02;16.90;1.00
1361;DHT22;674;45.552;-122.600;2022-09-17T04:26:31;16.90;1.00
1361;DHT22;674;45.552;-122.600;2022-09-17T04:28:59;16.90;1.00
1361;DHT22;674;45.552;-122.600;2022-09-17T04:31:28;16.90;1.00
1361;DHT22;674;45.552;-122.600;2022-09-17T04:33:56;16.80;1.00
1361;DHT22;674;45.552;-122.600;2022-09-17T04:36:25;16.70;1.00
1361;DHT22;674;45.552;-122.600;2022-09-17T04:38:53;16.70;1.00
1361;DHT22;674;45.552;-122.600;2022-09-17T04:41:22;16.60;1.00
1361;DHT22;674;45.552;-122.600;2022-09-17T04:43:50;16.60;1.00
1361;DHT22;674;45.552;-122.600;2022-09-17T04:46:19;16.50;1.00
1361;DHT22;674;45.552;-122.600;2022-09-17T04:48:47;16.50;1.00
1361;DHT22;674;45.552;-122.600;2022-09-17T04:51:16;16.50;1.00
1361;DHT22;674;45.552;-122.600;2022-09-17T04:53:44;16.60;1.00
1361;DHT22;674;45.552;-122.600;2022-09-17T04:56:12;16.60;1.00
1361;DHT22;674;45.552;-122.600;2022-09-17T04:58:41;16.60;1.00
1361;DHT22;674;45.552;-122.600;2022-09-17T05:01:09;16.60;1.00
1361;DHT22;674;45.552;-122.600;2022-09-17T05:03:38;16.50;1.00
1361;DHT22;674;45.552;-122.600;2022-09-17T05:06:06;16.50;1.00
1361;DHT22;674;45.552;-122.600;2022-09-17T05:08:35;16.40;1.00
1361;DHT22;674;45.552;-122.600;2022-09-17T05:11:03;16.30;1.00
1361;DHT22;674;45.552;-122.600;2022-09-17T05:13:32;16.30;1.00
1361;DHT22;674;45.552;-122.600;2022-09-17T05:16:00;16.30;1.00
1361;DHT22;674;45.552;-122.600;2022-09-17T05:18:29;16.20;1.00
1361;DHT22;674;45.552;-122.600;2022-09-17T05:20:58;16.10;1.00
1361;DHT22;674;45.552;-122.600;2022-09-17T05:23:26;16.10;1.00
1361;DHT22;674;45.552;-122.600;2022-09-17T05:25:58;16.00;1.00
1361;DHT22;674;45.552;-122.600;2022-09-17T05:28:28;16.00;1.00
1361;DHT22;674;45.552;-122.600;2022-09-17T05:30:59;16.00;1.00
1361;DHT22;674;45.552;-122.600;2022-09-17T05:33:29;15.90;1.00
1361;DHT22;674;45.552;-122.600;2022-09-17T05:35:57;15.90;1.00
1361;DHT22;674;45.552;-122.600;2022-09-17T05:38:26;15.90;1.00
1361;DHT22;674;45.552;-122.600;2022-09-17T05:40:55;15.80;1.00
1361;DHT22;674;45.552;-122.600;2022-09-17T05:43:24;15.70;1.00
1361;DHT22;674;45.552;-122.600;2022-09-17T05:45:53;15.60;1.00
1361;DHT22;674;45.552;-122.600;2022-09-17T05:48:22;15.60;1.00
1361;DHT22;674;45.552;-122.600;2022-09-17T05:50:50;15.50;1.00
1361;DHT22;674;45.552;-122.600;2022-09-17T05:53:18;15.40;1.00
1361;DHT22;674;45.552;-122.600;2022-09-17T05:55:47;15.40;1.00
1361;DHT22;674;45.552;-122.600;2022-09-17T05:58:17;15.50;1.00
1361;DHT22;674;45.552;-122.600;2022-09-17T06:00:46;15.40;1.00
1361;DHT22;674;45.552;-122.600;2022-09-17T06:03:17;15.30;1.00
1361;DHT22;674;45.552;-122.600;2022-09-17T06:05:58;15.30;1.00
1361;DHT22;674;45.552;-122.600;2022-09-17T06:08:28;15.30;1.00
1361;DHT22;674;45.552;-122.600;2022-09-17T06:10:56;15.20;1.00
1361;DHT22;674;45.552;-122.600;2022-09-17T06:13:28;15.20;1.00
1361;DHT22;674;45.552;-122.600;2022-09-17T06:15:58;15.20;1.00
1361;DHT22;674;45.552;-122.600;2022-09-17T06:18:28;15.20;1.00
1361;DHT22;674;45.552;-122.600;2022-09-17T06:20:59;15.20;1.00
1361;DHT22;674;45.552;-122.600;2022-09-17T06:23:31;15.10;1.00
1361;DHT22;674;45.552;-122.600;2022-09-17T06:26:05;15.20;1.00
1361;DHT22;674;45.552;-122.600;2022-09-17T06:28:34;15.20;1.00
1361;DHT22;674;45.552;-122.600;2022-09-17T06:31:09;15.10;1.00
1361;DHT22;674;45.552;-122.600;2022-09-17T06:33:38;15.10;1.00
1361;DHT22;674;45.552;-122.600;2022-09-17T06:36:08;15.10;1.00
1361;DHT22;674;45.552;-122.600;2022-09-17T06:38:41;15.00;1.00
1361;DHT22;674;45.552;-122.600;2022-09-17T06:41:12;15.00;1.00
1361;DHT22;674;45.552;-122.600;2022-09-17T06:43:43;14.90;1.00
1361;DHT22;674;45.552;-122.600;2022-09-17T06:46:11;15.00;1.00
1361;DHT22;674;45.552;-122.600;2022-09-17T06:48:40;14.80;1.00
1361;DHT22;674;45.552;-122.600;2022-09-17T06:51:10;14.80;1.00
1361;DHT22;674;45.552;-122.600;2022-09-17T06:53:38;14.80;1.00
1361;DHT22;674;45.552;-122.600;2022-09-17T06:56:08;14.80;1.00
1361;DHT22;674;45.552;-122.600;2022-09-17T06:58:37;14.80;1.00
1361;DHT22;674;45.552;-122.600;2022-09-17T07:01:05;14.80;1.00
1361;DHT22;674;45.552;-122.600;2022-09-17T07:03:34;14.80;1.00
1361;DHT22;674;45.552;-122.600;2022-09-17T07:06:06;14.80;1.00
1361;DHT22;674;45.552;-122.600;2022-09-17T07:08:37;14.80;1.00
1361;DHT22;674;45.552;-122.600;2022-09-17T07:11:06;14.90;1.00
1361;DHT22;674;45.552;-122.600;2022-09-17T07:13:35;14.90;1.00
1361;DHT22;674;45.552;-122.600;2022-09-17T07:16:04;14.80;1.00
1361;DHT22;674;45.552;-122.600;2022-09-17T07:18:33;14.70;1.00
1361;DHT22;674;45.552;-122.600;2022-09-17T07:21:04;14.70;1.00
1361;DHT22;674;45.552;-122.600;2022-09-17T07:23:34;14.80;1.00
1361;DHT22;674;45.552;-122.600;2022-09-17T07:26:11;14.50;1.00
1361;DHT22;674;45.552;-122.600;2022-09-17T07:28:40;14.60;1.00
1361;DHT22;674;45.552;-122.600;2022-09-17T07:31:11;14.50;1.00
1361;DHT22;674;45.552;-122.600;2022-09-17T07:33:43;14.50;1.00
1361;DHT22;674;45.552;-122.600;2022-09-17T07:36:14;14.40;1.00
1361;DHT22;674;45.552;-122.600;2022-09-17T07:38:44;14.50;1.00
1361;DHT22;674;45.552;-122.600;2022-09-17T07:41:15;14.40;1.00
1361;DHT22;674;45.552;-122.600;2022-09-17T07:43:44;14.40;1.00
1361;DHT22;674;45.552;-122.600;2022-09-17T07:46:18;14.30;1.00
1361;DHT22;674;45.552;-122.600;2022-09-17T07:48:47;14.30;1.00
1361;DHT22;674;45.552;-122.600;2022-09-17T07:51:21;14.30;1.00
1361;DHT22;674;45.552;-122.600;2022-09-17T07:53:51;14.20;1.00
1361;DHT22;674;45.552;-122.600;2022-09-17T07:56:21;14.20;1.00
1361;DHT22;674;45.552;-122.600;2022-09-17T07:58:50;14.10;1.00
1361;DHT22;674;45.552;-122.600;2022-09-17T08:01:19;14.10;1.00
1361;DHT22;674;45.552;-122.600;2022-09-17T08:03:52;14.10;1.00
1361;DHT22;674;45.552;-122.600;2022-09-17T08:06:23;14.00;1.00
1361;DHT22;674;45.552;-122.600;2022-09-17T08:08:58;14.00;1.00
1361;DHT22;674;45.552;-122.600;2022-09-17T08:11:28;14.10;1.00
1361;DHT22;674;45.552;-122.600;2022-09-17T08:14:17;13.90;1.00
1361;DHT22;674;45.552;-122.600;2022-09-17T08:16:46;13.90;1.00
1361;DHT22;674;45.552;-122.600;2022-09-17T08:19:14;13.90;1.00
1361;DHT22;674;45.552;-122.600;2022-09-17T08:21:46;13.80;1.00
1361;DHT22;674;45.552;-122.600;2022-09-17T08:24:15;13.70;1.00
1361;DHT22;674;45.552;-122.600;2022-09-17T08:26:43;13.70;1.00
1361;DHT22;674;45.552;-122.600;2022-09-17T08:29:11;13.70;1.00
1361;DHT22;674;45.552;-122.600;2022-09-17T08:31:40;13.60;1.00
1361;DHT22;674;45.552;-122.600;2022-09-17T08:34:09;13.50;1.00
1361;DHT22;674;45.552;-122.600;2022-09-17T08:36:38;13.50;2.00
1361;DHT22;674;45.552;-122.600;2022-09-17T08:39:06;13.40;3.70
1361;DHT22;674;45.552;-122.600;2022-09-17T08:44:30;13.30;17.80
1361;DHT22;674;45.552;-122.600;2022-09-17T08:47:07;13.30;24.10
1361;DHT22;674;45.552;-122.600;2022-09-17T08:49:59;13.30;30.90
1361;DHT22;674;45.552;-122.600;2022-09-17T08:52:35;13.20;45.90
1361;DHT22;674;45.552;-122.600;2022-09-17T09:06:44;13.30;60.30
1361;DHT22;674;45.552;-122.600;2022-09-17T09:09:16;13.30;62.90
1361;DHT22;674;45.552;-122.600;2022-09-17T09:11:45;13.30;66.40
1361;DHT22;674;45.552;-122.600;2022-09-17T09:14:17;13.30;68.80
1361;DHT22;674;45.552;-122.600;2022-09-17T09:16:48;13.30;72.20
1361;DHT22;674;45.552;-122.600;2022-09-17T09:30:18;13.30;78.70
1361;DHT22;674;45.552;-122.600;2022-09-17T09:35:27;13.20;83.40
1361;DHT22;674;45.552;-122.600;2022-09-17T09:41:07;13.10;90.00
1361;DHT22;674;45.552;-122.600;2022-09-17T09:44:01;13.10;91.80
1361;DHT22;674;45.552;-122.600;2022-09-17T09:52:43;12.90;95.80
1361;DHT22;674;45.552;-122.600;2022-09-17T10:00:44;12.90;99.90
1361;DHT22;674;45.552;-122.600;2022-09-17T10:06:03;12.90;99.90
1361;DHT22;674;45.552;-122.600;2022-09-17T10:08:34;12.80;99.90
1361;DHT22;674;45.552;-122.600;2022-09-17T10:11:15;12.80;99.90
1361;DHT22;674;45.552;-122.600;2022-09-17T10:13:47;12.70;99.90
1361;DHT22;674;45.552;-122.600;2022-09-17T10:19:11;12.80;99.90
1361;DHT22;674;45.552;-122.600;2022-09-17T10:21:41;12.80;99.90
1361;DHT22;674;45.552;-122.600;2022-09-17T10:24:27;12.80;99.90
1361;DHT22;674;45.552;-122.600;2022-09-17T10:27:05;12.90;99.90
1361;DHT22;674;45.552;-122.600;2022-09-17T10:29:49;12.80;99.90
1361;DHT22;674;45.552;-122.600;2022-09-17T10:32:20;12.80;99.90
1361;DHT22;674;45.552;-122.600;2022-09-17T10:37:44;12.80;99.90
1361;DHT22;674;45.552;-122.600;2022-09-17T10:42:49;12.80;99.90
1361;DHT22;674;45.552;-122.600;2022-09-17T10:45:26;12.70;99.90
1361;DHT22;674;45.552;-122.600;2022-09-17T10:47:56;12.70;99.90
1361;DHT22;674;45.552;-122.600;2022-09-17T10:50:28;12.70;99.90
1361;DHT22;674;45.552;-122.600;2022-09-17T10:53:01;12.70;99.90
1361;DHT22;674;45.552;-122.600;2022-09-17T10:55:40;12.60;99.90
1361;DHT22;674;45.552;-122.600;2022-09-17T11:01:08;12.60;99.90
1361;DHT22;674;45.552;-122.600;2022-09-17T11:09:13;12.60;99.90
1361;DHT22;674;45.552;-122.600;2022-09-17T11:17:34;12.40;99.90
1361;DHT22;674;45.552;-122.600;2022-09-17T11:25:56;12.20;99.90
1361;DHT22;674;45.552;-122.600;2022-09-17T11:36:45;12.00;99.90
1361;DHT22;674;45.552;-122.600;2022-09-17T11:42:15;12.10;99.90
1361;DHT22;674;45.552;-122.600;2022-09-17T11:44:50;12.10;99.90
1361;DHT22;674;45.552;-122.600;2022-09-17T11:47:33;12.10;99.90
1361;DHT22;674;45.552;-122.600;2022-09-17T11:50:27;12.10;99.90
1361;DHT22;674;45.552;-122.600;2022-09-17T11:55:43;11.90;99.90
1361;DHT22;674;45.552;-122.600;2022-09-17T12:00:57;11.90;99.90
1361;DHT22;674;45.552;-122.600;2022-09-17T12:03:40;12.00;99.90
1361;DHT22;674;45.552;-122.600;2022-09-17T12:09:10;12.20;99.90
1361;DHT22;674;45.552;-122.600;2022-09-17T12:17:07;12.40;99.90
1361;DHT22;674;45.552;-122.600;2022-09-17T12:19:45;12.50;99.90
1361;DHT22;674;45.552;-122.600;2022-09-17T12:22:26;12.60;99.90
1361;DHT22;674;45.552;-122.600;2022-09-17T12:24:57;12.70;99.90
1361;DHT22;674;45.552;-122.600;2022-09-17T12:27:55;12.70;99.90
1361;DHT22;674;45.552;-122.600;2022-09-17T12:30:39;12.90;99.90
1361;DHT22;674;45.552;-122.600;2022-09-17T12:36:01;12.80;99.90
1361;DHT22;674;45.552;-122.600;2022-09-17T12:42:07;13.00;99.90
1361;DHT22;674;45.552;-122.600;2022-09-17T12:44:46;12.80;99.90
1361;DHT22;674;45.552;-122.600;2022-09-17T12:53:12;12.70;99.90
1361;DHT22;674;45.552;-122.600;2022-09-17T12:59:18;12.40;99.90
1361;DHT22;674;45.552;-122.600;2022-09-17T13:02:14;12.30;99.90
1361;DHT22;674;45.552;-122.600;2022-09-17T13:16:06;12.00;99.90
1361;DHT22;674;45.552;-122.600;2022-09-17T13:18:46;12.00;99.90
1361;DHT22;674;45.552;-122.600;2022-09-17T13:21:58;12.00;99.90
1361;DHT22;674;45.552;-122.600;2022-09-17T13:24:29;12.00;99.90
1361;DHT22;674;45.552;-122.600;2022-09-17T13:26:59;12.10;99.90
1361;DHT22;674;45.552;-122.600;2022-09-17T13:40:26;12.00;99.90
1361;DHT22;674;45.552;-122.600;2022-09-17T13:46:03;12.20;99.90
1361;DHT22;674;45.552;-122.600;2022-09-17T13:48:24;12.20;99.90
1361;DHT22;674;45.552;-122.600;2022-09-17T13:50:53;12.10;99.90
1361;DHT22;674;45.552;-122.600;2022-09-17T13:53:24;12.20;99.90
1361;DHT22;674;45.552;-122.600;2022-09-17T13:55:59;12.30;99.90
1361;DHT22;674;45.552;-122.600;2022-09-17T13:58:32;12.40;99.90
1361;DHT22;674;45.552;-122.600;2022-09-17T14:09:57;12.70;99.90
1361;DHT22;674;45.552;-122.600;2022-09-17T14:15:34;12.50;99.90
1361;DHT22;674;45.552;-122.600;2022-09-17T14:24:25;12.80;99.90
1361;DHT22;674;45.552;-122.600;2022-09-17T14:30:04;13.00;99.90
1361;DHT22;674;45.552;-122.600;2022-09-17T14:38:08;12.90;99.90
1361;DHT22;674;45.552;-122.600;2022-09-17T14:40:42;13.00;99.90
1361;DHT22;674;45.552;-122.600;2022-09-17T14:46:03;13.30;99.90
1361;DHT22;674;45.552;-122.600;2022-09-17T14:48:34;13.30;99.90
1361;DHT22;674;45.552;-122.600;2022-09-17T14:54:34;13.60;99.90
1361;DHT22;674;45.552;-122.600;2022-09-17T14:56:50;13.60;99.90
1361;DHT22;674;45.552;-122.600;2022-09-17T15:02:00;13.70;98.70
1361;DHT22;674;45.552;-122.600;2022-09-17T15:04:30;13.70;98.10
1361;DHT22;674;45.552;-122.600;2022-09-17T15:07:07;13.50;98.50
1361;DHT22;674;45.552;-122.600;2022-09-17T15:09:36;13.70;98.10
1361;DHT22;674;45.552;-122.600;2022-09-17T15:12:06;13.80;93.40
1361;DHT22;674;45.552;-122.600;2022-09-17T15:14:37;13.80;92.60
1361;DHT22;674;45.552;-122.600;2022-09-17T15:17:13;13.80;93.90
1361;DHT22;674;45.552;-122.600;2022-09-17T15:19:50;14.00;92.20
1361;DHT22;674;45.552;-122.600;2022-09-17T15:22:28;14.10;88.50
1361;DHT22;674;45.552;-122.600;2022-09-17T15:25:04;14.20;71.90
1361;DHT22;674;45.552;-122.600;2022-09-17T15:27:38;14.30;72.30
1361;DHT22;674;45.552;-122.600;2022-09-17T15:30:17;14.30;72.60
1361;DHT22;674;45.552;-122.600;2022-09-17T15:32:50;14.30;68.10
1361;DHT22;674;45.552;-122.600;2022-09-17T15:35:27;14.20;71.50
1361;DHT22;674;45.552;-122.600;2022-09-17T15:38:01;14.20;80.00
1361;DHT22;674;45.552;-122.600;2022-09-17T15:40:50;14.50;71.60
1361;DHT22;674;45.552;-122.600;2022-09-17T15:43:31;14.60;62.20
1361;DHT22;674;45.552;-122.600;2022-09-17T15:46:28;14.90;43.90
1361;DHT22;674;45.552;-122.600;2022-09-17T15:49:01;14.70;39.80
1361;DHT22;674;45.552;-122.600;2022-09-17T15:51:34;14.60;50.70
1361;DHT22;674;45.552;-122.600;2022-09-17T15:54:05;14.50;42.60
1361;DHT22;674;45.552;-122.600;2022-09-17T15:56:38;14.70;48.60
1361;DHT22;674;45.552;-122.600;2022-09-17T16:01:52;15.00;22.80
1361;DHT22;674;45.552;-122.600;2022-09-17T16:04:29;15.20;12.90
1361;DHT22;674;45.552;-122.600;2022-09-17T16:09:41;15.60;1.00
1361;DHT22;674;45.552;-122.600;2022-09-17T16:12:14;15.50;1.00
1361;DHT22;674;45.552;-122.600;2022-09-17T16:14:48;15.70;1.00
1361;DHT22;674;45.552;-122.600;2022-09-17T16:19:56;15.40;1.00
1361;DHT22;674;45.552;-122.600;2022-09-17T16:22:32;15.90;1.00
1361;DHT22;674;45.552;-122.600;2022-09-17T16:25:00;16.00;1.00
1361;DHT22;674;45.552;-122.600;2022-09-17T16:27:34;15.70;1.00
1361;DHT22;674;45.552;-122.600;2022-09-17T16:30:07;15.50;1.00
1361;DHT22;674;45.552;-122.600;2022-09-17T16:32:36;15.00;1.00
1361;DHT22;674;45.552;-122.600;2022-09-17T16:35:05;15.20;1.00
1361;DHT22;674;45.552;-122.600;2022-09-17T16:37:34;14.90;1.00
1361;DHT22;674;45.552;-122.600;2022-09-17T16:40:03;15.40;1.00
1361;DHT22;674;45.552;-122.600;2022-09-17T16:42:31;15.80;1.00
1361;DHT22;674;45.552;-122.600;2022-09-17T16:45:01;16.30;1.00
1361;DHT22;674;45.552;-122.600;2022-09-17T16:47:35;16.40;1.00
1361;DHT22;674;45.552;-122.600;2022-09-17T16:50:13;16.70;1.00
1361;DHT22;674;45.552;-122.600;2022-09-17T16:52:43;16.90;1.00
1361;DHT22;674;45.552;-122.600;2022-09-17T16:55:15;16.80;1.00
1361;DHT22;674;45.552;-122.600;2022-09-17T16:57:47;16.80;1.00
1361;DHT22;674;45.552;-122.600;2022-09-17T17:00:18;16.70;1.00
1361;DHT22;674;45.552;-122.600;2022-09-17T17:02:55;16.60;1.00
1361;DHT22;674;45.552;-122.600;2022-09-17T17:05:25;16.70;1.00
1361;DHT22;674;45.552;-122.600;2022-09-17T17:07:55;16.60;1.00
1361;DHT22;674;45.552;-122.600;2022-09-17T17:10:32;16.90;1.00
1361;DHT22;674;45.552;-122.600;2022-09-17T17:13:00;17.40;1.00
1361;DHT22;674;45.552;-122.600;2022-09-17T17:15:29;17.60;1.00
1361;DHT22;674;45.552;-122.600;2022-09-17T17:17:57;17.80;1.00
1361;DHT22;674;45.552;-122.600;2022-09-17T17:20:26;17.40;1.00
1361;DHT22;674;45.552;-122.600;2022-09-17T17:22:54;17.20;1.00
1361;DHT22;674;45.552;-122.600;2022-09-17T17:25:23;17.30;1.00
1361;DHT22;674;45.552;-122.600;2022-09-17T17:27:51;17.40;1.00
1361;DHT22;674;45.552;-122.600;2022-09-17T17:30:20;17.60;1.00
1361;DHT22;674;45.552;-122.600;2022-09-17T17:32:50;17.60;1.00
1361;DHT22;674;45.552;-122.600;2022-09-17T17:35:19;17.20;1.00
1361;DHT22;674;45.552;-122.600;2022-09-17T17:37:48;17.10;1.00
1361;DHT22;674;45.552;-122.600;2022-09-17T17:40:18;16.80;1.00
1361;DHT22;674;45.552;-122.600;2022-09-17T17:42:51;17.10;1.00
1361;DHT22;674;45.552;-122.600;2022-09-17T17:45:19;16.80;1.00
1361;DHT22;674;45.552;-122.600;2022-09-17T17:47:48;17.20;1.00
1361;DHT22;674;45.552;-122.600;2022-09-17T17:50:17;17.40;1.00
1361;DHT22;674;45.552;-122.600;2022-09-17T17:52:45;17.40;1.00
1361;DHT22;674;45.552;-122.600;2022-09-17T17:55:16;17.10;1.00
1361;DHT22;674;45.552;-122.600;2022-09-17T17:57:44;17.30;1.00
1361;DHT22;674;45.552;-122.600;2022-09-17T18:00:13;17.80;1.00
1361;DHT22;674;45.552;-122.600;2022-09-17T18:02:43;18.10;1.00
1361;DHT22;674;45.552;-122.600;2022-09-17T18:05:12;18.00;1.00
1361;DHT22;674;45.552;-122.600;2022-09-17T18:07:40;18.20;1.00
1361;DHT22;674;45.552;-122.600;2022-09-17T18:10:09;17.70;1.00
1361;DHT22;674;45.552;-122.600;2022-09-17T18:12:37;17.70;1.00
1361;DHT22;674;45.552;-122.600;2022-09-17T18:15:06;17.80;1.00
1361;DHT22;674;45.552;-122.600;2022-09-17T18:17:35;18.10;1.00
1361;DHT22;674;45.552;-122.600;2022-09-17T18:20:03;18.30;1.00
1361;DHT22;674;45.552;-122.600;2022-09-17T18:22:32;18.30;1.00
1361;DHT22;674;45.552;-122.600;2022-09-17T18:25:00;18.00;1.00
1361;DHT22;674;45.552;-122.600;2022-09-17T18:27:29;17.60;1.00
1361;DHT22;674;45.552;-122.600;2022-09-17T18:29:57;18.10;1.00
1361;DHT22;674;45.552;-122.600;2022-09-17T18:32:25;17.80;1.00
1361;DHT22;674;45.552;-122.600;2022-09-17T18:34:54;17.70;1.00
1361;DHT22;674;45.552;-122.600;2022-09-17T18:37:22;17.80;1.00
1361;DHT22;674;45.552;-122.600;2022-09-17T18:39:52;17.40;1.00
1361;DHT22;674;45.552;-122.600;2022-09-17T18:42:25;17.50;1.00
1361;DHT22;674;45.552;-122.600;2022-09-17T18:44:54;17.20;1.00
1361;DHT22;674;45.552;-122.600;2022-09-17T18:47:22;17.20;1.00
1361;DHT22;674;45.552;-122.600;2022-09-17T18:49:51;17.20;1.00
1361;DHT22;674;45.552;-122.600;2022-09-17T18:52:19;17.10;1.00
1361;DHT22;674;45.552;-122.600;2022-09-17T18:54:48;17.40;1.00
1361;DHT22;674;45.552;-122.600;2022-09-17T18:57:16;17.70;1.00
1361;DHT22;674;45.552;-122.600;2022-09-17T18:59:45;17.90;1.00
1361;DHT22;674;45.552;-122.600;2022-09-17T19:02:13;17.40;1.00
1361;DHT22;674;45.552;-122.600;2022-09-17T19:04:42;17.70;1.00
1361;DHT22;674;45.552;-122.600;2022-09-17T19:07:10;17.60;1.00
1361;DHT22;674;45.552;-122.600;2022-09-17T19:09:38;17.90;1.00
1361;DHT22;674;45.552;-122.600;2022-09-17T19:12:07;18.20;1.00
1361;DHT22;674;45.552;-122.600;2022-09-17T19:14:35;18.40;1.00
1361;DHT22;674;45.552;-122.600;2022-09-17T19:17:04;18.70;1.00
1361;DHT22;674;45.552;-122.600;2022-09-17T19:19:32;19.00;1.00
1361;DHT22;674;45.552;-122.600;2022-09-17T19:22:02;19.00;1.00
1361;DHT22;674;45.552;-122.600;2022-09-17T19:24:33;19.30;1.00
1361;DHT22;674;45.552;-122.600;2022-09-17T19:27:02;19.30;1.00
1361;DHT22;674;45.552;-122.600;2022-09-17T19:29:31;19.70;1.00
1361;DHT22;674;45.552;-122.600;2022-09-17T19:31:59;19.90;1.00
1361;DHT22;674;45.552;-122.600;2022-09-17T19:34:28;19.20;1.00
1361;DHT22;674;45.552;-122.600;2022-09-17T19:36:56;19.30;1.00
1361;DHT22;674;45.552;-122.600;2022-09-17T19:39:25;19.60;1.00
1361;DHT22;674;45.552;-122.600;2022-09-17T19:41:53;19.80;1.00
1361;DHT22;674;45.552;-122.600;2022-09-17T19:44:21;19.70;1.00
1361;DHT22;674;45.552;-122.600;2022-09-17T19:46:50;20.00;1.00
1361;DHT22;674;45.552;-122.600;2022-09-17T19:49:20;20.10;1.00
1361;DHT22;674;45.552;-122.600;2022-09-17T19:51:48;20.20;1.00
1361;DHT22;674;45.552;-122.600;2022-09-17T19:54:16;20.20;1.00
1361;DHT22;674;45.552;-122.600;2022-09-17T19:56:45;20.70;1.00
1361;DHT22;674;45.552;-122.600;2022-09-17T19:59:14;21.00;1.00
1361;DHT22;674;45.552;-122.600;2022-09-17T20:01:42;20.90;1.00
1361;DHT22;674;45.552;-122.600;2022-09-17T20:04:15;21.00;1.00
1361;DHT22;674;45.552;-122.600;2022-09-17T20:06:44;21.10;1.00
1361;DHT22;674;45.552;-122.600;2022-09-17T20:09:13;21.10;1.00
1361;DHT22;674;45.552;-122.600;2022-09-17T20:11:43;20.90;1.00